Airfield :







YOU CAN JOIN US ON...

 
LOGIN :

Register | Disclaimer

   EN    FR    IT 

 









Legend :    VFR   Marginal VFR   IFR   Intensive IFR   Very Intensive IFR
Visi :
Ceiling :
>= 8 km
>= 3000ft
5 to 8 km
1000 to 3000 ft
1500m to 5 km
500 to 1000 ft
800 to 1500m
200 to 500 ft
< 800m
< 200 ft
Symbols :   Thunderstorms  Fog  Heavy snow  Heavy precipitations  Wind > 20 kt






- Airport Elevation : 1709 ft
- IATA code : YKL


CYKL - Schefferville

CURRENT METAR :
  • 092100Z AUTO 22008KT 9SM OVC160 M20/M23 A2987 RMK SLP171

EXPIRED METARs :
  • 092000Z AUTO 22006KT 9SM SCT150 BKN180 M20/M23 A2986 RMK SLP167
  • 091900Z AUTO 25005KT 9SM FEW170 M19/M23 A2985 RMK SLP162

TAF TAF CYKL
Valid from the 09 at 20:00 until the 10 at 08:00 UTC


091938Z 0920/1008 25008KT P6SM FEW160
FM100000 VRB03KT P6SM SCT100
FM100500 10008KT P6SM -SN SCT010 OVC050
PROB30 1005/1007 2SM -SHSN OVC010
FM100700 10010KT 2SM -SN OVC010 RMK FCST BASED ON AUTO OBS. NXT FCST BY 100200Z



MET'MAP, your aeronautical weather chart ! - Copyright ORBIFLY December 2007 - Disclaimer

ORBIFLY MET'MAP TEAM :

Programming & Development : Alexandra Zaïnal
Concept & original design : Baudouin d'Aumeries
Assistance for programming : Marc-Olivier Méhu
Technical & hardware support : Manuel Goepfert

Contact : metmap@orbifly.com




SOURCES & CREDITS :

   NOAA